sensor_id;sensor_type;location;lat;lon;timestamp;P1;durP1;ratioP1;P2;durP2;ratioP2
15151;SDS011;7676;50.900;6.234;2023-01-24T00:07:27;16.67;;;14.87;;
15151;SDS011;7676;50.900;6.234;2023-01-24T00:22:29;17.87;;;15.93;;
15151;SDS011;7676;50.900;6.234;2023-01-24T00:37:32;18.70;;;15.73;;
15151;SDS011;7676;50.900;6.234;2023-01-24T00:52:34;19.63;;;17.53;;
15151;SDS011;7676;50.900;6.234;2023-01-24T01:07:37;17.40;;;15.50;;
15151;SDS011;7676;50.900;6.234;2023-01-24T01:22:39;16.53;;;14.53;;
15151;SDS011;7676;50.900;6.234;2023-01-24T01:37:42;18.53;;;15.10;;
15151;SDS011;7676;50.900;6.234;2023-01-24T01:52:44;17.90;;;15.13;;
15151;SDS011;7676;50.900;6.234;2023-01-24T02:07:52;17.60;;;15.70;;
15151;SDS011;7676;50.900;6.234;2023-01-24T02:38:13;21.13;;;17.07;;
15151;SDS011;7676;50.900;6.234;2023-01-24T02:53:17;20.60;;;17.97;;
15151;SDS011;7676;50.900;6.234;2023-01-24T03:08:33;20.83;;;18.17;;
15151;SDS011;7676;50.900;6.234;2023-01-24T03:23:42;25.47;;;20.77;;
15151;SDS011;7676;50.900;6.234;2023-01-24T03:39:03;22.03;;;18.63;;
15151;SDS011;7676;50.900;6.234;2023-01-24T03:54:25;26.37;;;22.03;;
15151;SDS011;7676;50.900;6.234;2023-01-24T04:09:35;23.50;;;21.00;;
15151;SDS011;7676;50.900;6.234;2023-01-24T04:24:38;16.63;;;14.97;;
15151;SDS011;7676;50.900;6.234;2023-01-24T04:39:40;14.50;;;13.00;;
15151;SDS011;7676;50.900;6.234;2023-01-24T04:54:48;16.63;;;14.97;;
15151;SDS011;7676;50.900;6.234;2023-01-24T05:09:50;16.30;;;14.70;;
15151;SDS011;7676;50.900;6.234;2023-01-24T05:24:53;14.70;;;13.27;;
15151;SDS011;7676;50.900;6.234;2023-01-24T05:39:56;13.77;;;12.47;;
15151;SDS011;7676;50.900;6.234;2023-01-24T05:54:58;16.37;;;14.77;;
15151;SDS011;7676;50.900;6.234;2023-01-24T06:10:14;13.80;;;12.43;;
15151;SDS011;7676;50.900;6.234;2023-01-24T06:25:29;12.83;;;11.53;;
15151;SDS011;7676;50.900;6.234;2023-01-24T06:40:31;13.80;;;12.50;;
15151;SDS011;7676;50.900;6.234;2023-01-24T06:55:34;15.10;;;13.57;;
15151;SDS011;7676;50.900;6.234;2023-01-24T07:10:37;14.13;;;12.73;;
15151;SDS011;7676;50.900;6.234;2023-01-24T07:25:40;16.00;;;14.50;;
15151;SDS011;7676;50.900;6.234;2023-01-24T07:40:44;17.23;;;15.50;;
15151;SDS011;7676;50.900;6.234;2023-01-24T07:55:47;16.10;;;14.40;;
15151;SDS011;7676;50.900;6.234;2023-01-24T08:11:03;19.40;;;17.40;;
15151;SDS011;7676;50.900;6.234;2023-01-24T08:26:05;17.13;;;15.47;;
15151;SDS011;7676;50.900;6.234;2023-01-24T08:41:08;16.30;;;14.73;;
15151;SDS011;7676;50.900;6.234;2023-01-24T08:56:11;16.23;;;14.60;;
15151;SDS011;7676;50.900;6.234;2023-01-24T09:11:14;19.67;;;17.77;;
15151;SDS011;7676;50.900;6.234;2023-01-24T09:26:16;16.50;;;14.90;;
15151;SDS011;7676;50.900;6.234;2023-01-24T09:56:25;16.80;;;15.20;;
15151;SDS011;7676;50.900;6.234;2023-01-24T10:26:53;17.23;;;15.53;;
15151;SDS011;7676;50.900;6.234;2023-01-24T10:41:55;15.50;;;14.07;;
15151;SDS011;7676;50.900;6.234;2023-01-24T10:56:57;17.07;;;15.47;;
15151;SDS011;7676;50.900;6.234;2023-01-24T11:12:00;17.53;;;15.87;;
15151;SDS011;7676;50.900;6.234;2023-01-24T11:27:13;17.87;;;16.17;;
15151;SDS011;7676;50.900;6.234;2023-01-24T11:42:25;18.90;;;17.30;;
15151;SDS011;7676;50.900;6.234;2023-01-24T12:28:13;16.80;;;15.30;;
15151;SDS011;7676;50.900;6.234;2023-01-24T12:43:26;16.57;;;15.17;;
15151;SDS011;7676;50.900;6.234;2023-01-24T12:58:34;15.30;;;14.00;;
15151;SDS011;7676;50.900;6.234;2023-01-24T13:13:49;15.20;;;13.80;;
15151;SDS011;7676;50.900;6.234;2023-01-24T13:44:37;18.40;;;16.73;;
15151;SDS011;7676;50.900;6.234;2023-01-24T13:59:41;16.30;;;14.70;;
15151;SDS011;7676;50.900;6.234;2023-01-24T14:45:21;16.33;;;14.77;;
15151;SDS011;7676;50.900;6.234;2023-01-24T15:00:28;17.97;;;16.10;;
15151;SDS011;7676;50.900;6.234;2023-01-24T15:15:30;17.03;;;15.33;;
15151;SDS011;7676;50.900;6.234;2023-01-24T15:30:33;19.47;;;17.50;;
15151;SDS011;7676;50.900;6.234;2023-01-24T15:45:37;27.43;;;24.67;;
15151;SDS011;7676;50.900;6.234;2023-01-24T16:00:48;18.40;;;16.67;;
15151;SDS011;7676;50.900;6.234;2023-01-24T16:15:56;18.40;;;16.50;;
15151;SDS011;7676;50.900;6.234;2023-01-24T16:31:01;17.87;;;16.07;;
15151;SDS011;7676;50.900;6.234;2023-01-24T16:46:06;18.53;;;16.70;;
15151;SDS011;7676;50.900;6.234;2023-01-24T17:01:20;20.40;;;18.23;;
15151;SDS011;7676;50.900;6.234;2023-01-24T17:16:22;19.53;;;17.63;;
15151;SDS011;7676;50.900;6.234;2023-01-24T17:31:25;22.10;;;19.80;;
15151;SDS011;7676;50.900;6.234;2023-01-24T17:46:28;20.27;;;18.27;;
15151;SDS011;7676;50.900;6.234;2023-01-24T18:01:31;21.60;;;19.43;;
15151;SDS011;7676;50.900;6.234;2023-01-24T18:16:33;23.83;;;21.30;;
15151;SDS011;7676;50.900;6.234;2023-01-24T18:31:36;19.80;;;17.80;;
15151;SDS011;7676;50.900;6.234;2023-01-24T18:46:38;20.70;;;18.53;;
15151;SDS011;7676;50.900;6.234;2023-01-24T19:01:41;23.30;;;20.93;;
15151;SDS011;7676;50.900;6.234;2023-01-24T19:16:44;18.67;;;16.83;;
15151;SDS011;7676;50.900;6.234;2023-01-24T19:31:47;20.87;;;18.87;;
15151;SDS011;7676;50.900;6.234;2023-01-24T19:46:49;22.63;;;20.33;;
15151;SDS011;7676;50.900;6.234;2023-01-24T20:01:52;17.00;;;15.33;;
15151;SDS011;7676;50.900;6.234;2023-01-24T20:16:57;15.87;;;14.27;;
15151;SDS011;7676;50.900;6.234;2023-01-24T20:32:01;15.67;;;13.97;;
15151;SDS011;7676;50.900;6.234;2023-01-24T20:47:13;17.43;;;15.73;;
15151;SDS011;7676;50.900;6.234;2023-01-24T21:02:15;15.93;;;14.43;;
15151;SDS011;7676;50.900;6.234;2023-01-24T21:17:18;18.07;;;16.17;;
15151;SDS011;7676;50.900;6.234;2023-01-24T21:32:21;16.47;;;14.87;;
15151;SDS011;7676;50.900;6.234;2023-01-24T21:47:24;17.90;;;16.10;;
15151;SDS011;7676;50.900;6.234;2023-01-24T22:02:28;16.97;;;15.33;;
15151;SDS011;7676;50.900;6.234;2023-01-24T22:17:32;19.47;;;17.57;;
15151;SDS011;7676;50.900;6.234;2023-01-24T22:32:35;19.77;;;17.70;;
15151;SDS011;7676;50.900;6.234;2023-01-24T22:47:38;18.40;;;16.60;;
15151;SDS011;7676;50.900;6.234;2023-01-24T23:02:40;19.70;;;17.53;;
15151;SDS011;7676;50.900;6.234;2023-01-24T23:17:43;21.90;;;19.70;;
15151;SDS011;7676;50.900;6.234;2023-01-24T23:32:49;23.57;;;21.37;;
15151;SDS011;7676;50.900;6.234;2023-01-24T23:47:56;19.27;;;17.27;;
